createdAt,value
2018-10-07T00:00:12.475Z,2.98
2018-10-07T00:02:40.803Z,2.80
2018-10-07T00:05:09.176Z,2.42
2018-10-07T00:07:37.505Z,1.90
2018-10-07T00:10:06.148Z,2.22
2018-10-07T00:12:34.519Z,2.42
2018-10-07T00:15:02.924Z,2.47
2018-10-07T00:17:31.302Z,1.95
2018-10-07T00:19:59.674Z,2.10
2018-10-07T00:22:28.029Z,3.60
2018-10-07T00:24:56.427Z,2.98
2018-10-07T00:27:24.773Z,2.95
2018-10-07T00:29:53.180Z,2.80
2018-10-07T00:32:21.504Z,4.15
2018-10-07T00:34:49.870Z,2.62
2018-10-07T00:37:18.189Z,1.90
2018-10-07T00:39:46.556Z,3.90
2018-10-07T00:42:14.880Z,3.40
2018-10-07T00:44:43.239Z,2.70
2018-10-07T00:47:11.578Z,2.75
2018-10-07T00:49:39.960Z,2.22
2018-10-07T00:52:08.288Z,2.70
2018-10-07T00:54:36.636Z,3.10
2018-10-07T00:57:05.021Z,2.80
2018-10-07T00:59:33.352Z,2.85
2018-10-07T01:02:01.715Z,2.70
2018-10-07T01:04:30.040Z,2.20
2018-10-07T01:06:58.651Z,2.30
2018-10-07T01:09:26.977Z,2.37
2018-10-07T01:11:55.355Z,3.33
2018-10-07T01:14:23.680Z,4.00
2018-10-07T01:16:52.149Z,2.35
2018-10-07T01:19:20.476Z,2.05
2018-10-07T01:21:48.906Z,2.95
2018-10-07T01:24:17.255Z,2.90
2018-10-07T01:26:45.641Z,3.12
2018-10-07T01:29:13.939Z,2.60
2018-10-07T01:31:42.300Z,3.00
2018-10-07T01:34:10.613Z,3.60
2018-10-07T01:36:38.956Z,2.12
2018-10-07T01:39:09.257Z,2.47
2018-10-07T01:41:37.685Z,2.35
2018-10-07T01:44:06.052Z,2.52
2018-10-07T01:46:34.390Z,3.40
2018-10-07T01:49:02.700Z,1.40
2018-10-07T01:51:31.047Z,2.30
2018-10-07T01:53:59.392Z,2.00
2018-10-07T01:56:27.740Z,2.75
2018-10-07T01:58:56.092Z,2.40
2018-10-07T02:01:24.459Z,3.10
2018-10-07T02:03:52.813Z,3.00
2018-10-07T02:06:21.186Z,2.25
2018-10-07T02:08:49.487Z,2.20
2018-10-07T02:11:17.835Z,2.15
2018-10-07T02:13:46.217Z,1.95
2018-10-07T02:16:14.540Z,2.45
2018-10-07T02:18:42.868Z,2.72
2018-10-07T02:21:11.216Z,2.25
2018-10-07T02:23:39.533Z,2.83
2018-10-07T02:26:07.900Z,2.37
2018-10-07T02:28:36.220Z,1.90
2018-10-07T02:31:04.578Z,2.22
2018-10-07T02:33:32.903Z,1.98
2018-10-07T02:36:01.258Z,2.40
2018-10-07T02:38:29.575Z,2.40
2018-10-07T02:40:57.921Z,2.67
2018-10-07T02:43:26.231Z,2.80
2018-10-07T02:45:54.547Z,2.60
2018-10-07T02:48:22.888Z,2.22
2018-10-07T02:50:51.240Z,1.90
2018-10-07T02:53:19.617Z,2.70
2018-10-07T02:55:47.972Z,2.40
2018-10-07T02:58:16.371Z,2.72
2018-10-07T03:00:44.692Z,3.52
2018-10-07T03:03:13.040Z,1.72
2018-10-07T03:05:41.364Z,2.02
2018-10-07T03:08:09.721Z,3.98
2018-10-07T03:10:38.036Z,2.85
2018-10-07T03:13:06.393Z,2.50
2018-10-07T03:15:34.704Z,3.05
2018-10-07T03:18:03.178Z,2.80
2018-10-07T03:20:31.483Z,3.08
2018-10-07T03:22:59.816Z,2.50
2018-10-07T03:25:28.136Z,2.65
2018-10-07T03:27:56.477Z,2.67
2018-10-07T03:30:24.805Z,2.20
2018-10-07T03:32:53.176Z,2.80
2018-10-07T03:35:21.497Z,2.70
2018-10-07T03:37:49.857Z,2.25
2018-10-07T03:40:18.177Z,2.40
2018-10-07T03:42:46.524Z,2.62
2018-10-07T03:45:14.840Z,2.40
2018-10-07T03:47:43.188Z,2.37
2018-10-07T03:50:11.509Z,1.77
2018-10-07T03:52:39.860Z,1.98
2018-10-07T03:55:08.203Z,2.55
2018-10-07T03:57:36.551Z,1.82
2018-10-07T04:00:04.912Z,1.62
2018-10-07T04:02:33.265Z,2.87
2018-10-07T04:05:01.596Z,2.08
2018-10-07T04:07:29.950Z,1.98
2018-10-07T04:09:58.268Z,2.42
2018-10-07T04:12:26.621Z,2.40
2018-10-07T04:14:54.935Z,2.80
2018-10-07T04:17:23.279Z,2.75
2018-10-07T04:19:51.584Z,2.00
2018-10-07T04:22:19.901Z,2.50
2018-10-07T04:24:48.320Z,2.20
2018-10-07T04:27:16.632Z,1.92
2018-10-07T04:29:44.971Z,2.17
2018-10-07T04:32:13.304Z,1.87
2018-10-07T04:34:41.656Z,3.22
2018-10-07T04:37:09.980Z,2.22
2018-10-07T04:39:38.336Z,3.17
2018-10-07T04:42:06.716Z,2.95
2018-10-07T04:44:41.753Z,2.77
2018-10-07T04:47:10.069Z,4.15
2018-10-07T04:49:38.410Z,3.35
2018-10-07T04:52:06.869Z,2.25
2018-10-07T04:54:35.219Z,2.80
2018-10-07T04:57:03.542Z,3.35
2018-10-07T04:59:31.896Z,2.12
2018-10-07T05:02:00.228Z,2.20
2018-10-07T05:04:28.568Z,3.08
2018-10-07T05:06:56.915Z,2.33
2018-10-07T05:09:25.309Z,1.95
2018-10-07T05:11:56.863Z,2.65
2018-10-07T05:14:25.274Z,2.75
2018-10-07T05:16:53.984Z,2.45
2018-10-07T05:19:22.400Z,2.27
2018-10-07T05:21:50.749Z,2.70
2018-10-07T05:24:19.178Z,1.80
2018-10-07T05:26:47.552Z,2.85
2018-10-07T05:29:15.928Z,1.25
2018-10-07T05:31:44.260Z,2.75
2018-10-07T05:34:12.704Z,4.83
2018-10-07T05:36:41.036Z,1.87
2018-10-07T05:39:10.770Z,3.27
2018-10-07T05:41:39.140Z,2.40
2018-10-07T05:44:07.539Z,2.87
2018-10-07T05:46:35.838Z,2.08
2018-10-07T05:49:04.280Z,3.87
2018-10-07T05:51:32.628Z,3.25
2018-10-07T05:54:00.998Z,3.85
2018-10-07T05:56:29.317Z,2.33
2018-10-07T05:58:58.523Z,2.12
2018-10-07T06:01:43.925Z,3.58
2018-10-07T06:04:23.664Z,2.47
2018-10-07T06:06:53.288Z,2.65
2018-10-07T06:09:27.680Z,2.67
2018-10-07T06:12:00.519Z,1.67
2018-10-07T06:14:40.101Z,3.27
2018-10-07T06:17:08.473Z,2.90
2018-10-07T06:19:36.880Z,2.83
2018-10-07T06:22:05.937Z,2.80
2018-10-07T06:24:35.084Z,3.15
2018-10-07T06:27:03.953Z,1.80
2018-10-07T06:29:32.331Z,2.70
2018-10-07T06:32:00.668Z,2.60
2018-10-07T06:34:29.056Z,3.62
2018-10-07T06:36:57.416Z,2.55
2018-10-07T06:39:25.812Z,2.37
2018-10-07T06:41:54.741Z,2.77
2018-10-07T06:44:23.159Z,2.30
2018-10-07T06:46:51.476Z,2.47
2018-10-07T06:49:20.084Z,2.52
2018-10-07T06:51:48.565Z,3.95
2018-10-07T06:54:17.061Z,3.05
2018-10-07T06:56:45.416Z,2.25
2018-10-07T06:59:13.758Z,2.60
2018-10-07T07:01:42.173Z,3.72
2018-10-07T07:04:10.497Z,1.85
2018-10-07T07:06:38.948Z,2.60
2018-10-07T07:09:08.743Z,2.72
2018-10-07T07:11:37.252Z,2.90
2018-10-07T07:14:05.740Z,2.25
2018-10-07T07:16:34.324Z,2.27
2018-10-07T07:19:02.666Z,2.67
2018-10-07T07:21:31.032Z,4.25
2018-10-07T07:23:59.373Z,2.55
2018-10-07T07:26:27.780Z,2.95
2018-10-07T07:28:56.095Z,2.08
2018-10-07T07:31:24.491Z,2.52
2018-10-07T07:33:52.785Z,2.62
2018-10-07T07:36:21.124Z,2.55
2018-10-07T07:38:49.461Z,2.50
2018-10-07T07:41:17.812Z,2.25
2018-10-07T07:43:46.129Z,1.90
2018-10-07T07:46:14.537Z,2.40
2018-10-07T07:48:42.873Z,2.52
2018-10-07T07:51:11.220Z,2.92
2018-10-07T07:53:39.572Z,2.47
2018-10-07T07:56:07.951Z,2.47
2018-10-07T07:58:36.536Z,2.62
2018-10-07T08:01:04.968Z,2.40
2018-10-07T08:03:33.411Z,2.83
2018-10-07T08:06:01.823Z,2.00
2018-10-07T08:08:30.145Z,1.17
2018-10-07T08:10:58.511Z,2.17
2018-10-07T08:13:26.828Z,2.00
2018-10-07T08:15:55.184Z,2.33
2018-10-07T08:18:23.510Z,2.58
2018-10-07T08:20:51.857Z,1.92
2018-10-07T08:23:20.195Z,1.67
2018-10-07T08:25:48.555Z,2.60
2018-10-07T08:28:16.872Z,1.40
2018-10-07T08:30:45.234Z,1.80
2018-10-07T08:33:13.544Z,2.30
2018-10-07T08:35:41.889Z,2.77
2018-10-07T08:38:10.232Z,1.95
2018-10-07T08:40:38.648Z,3.02
2018-10-07T08:43:07.076Z,1.80
2018-10-07T08:45:35.419Z,1.80
2018-10-07T08:48:03.800Z,2.25
2018-10-07T08:50:32.116Z,2.30
2018-10-07T08:53:01.273Z,2.30
2018-10-07T08:55:29.592Z,1.77
2018-10-07T08:57:57.996Z,2.45
2018-10-07T09:00:26.344Z,1.45
2018-10-07T09:02:54.699Z,2.05
2018-10-07T09:05:23.008Z,2.80
2018-10-07T09:07:51.432Z,2.05
2018-10-07T09:10:19.736Z,1.87
2018-10-07T09:12:48.089Z,3.12
2018-10-07T09:15:16.412Z,1.80
2018-10-07T09:17:44.816Z,2.42
2018-10-07T09:20:13.120Z,3.60
2018-10-07T09:22:41.468Z,1.72
2018-10-07T09:25:09.796Z,2.30
2018-10-07T09:27:38.429Z,1.82
2018-10-07T09:30:06.912Z,1.77
2018-10-07T09:32:35.495Z,2.10
2018-10-07T09:35:03.717Z,2.20
2018-10-07T09:37:32.056Z,2.22
2018-10-07T09:40:01.017Z,2.15
2018-10-07T09:42:29.393Z,2.72
2018-10-07T09:44:57.721Z,2.33
2018-10-07T09:47:26.120Z,1.47
2018-10-07T09:49:54.450Z,4.25
2018-10-07T09:52:22.855Z,2.15
2018-10-07T09:54:51.123Z,2.20
2018-10-07T09:57:19.466Z,1.85
2018-10-07T09:59:47.781Z,3.30
2018-10-07T10:02:16.124Z,2.37
2018-10-07T10:04:44.440Z,1.62
2018-10-07T10:07:12.851Z,1.77
2018-10-07T10:09:41.344Z,2.10
2018-10-07T10:12:09.864Z,1.92
2018-10-07T10:14:38.184Z,2.40
2018-10-07T10:17:08.546Z,2.92
2018-10-07T10:19:44.599Z,2.10
2018-10-07T10:24:26.799Z,2.30
2018-10-07T10:27:05.357Z,2.85
2018-10-07T10:29:36.651Z,2.35
2018-10-07T10:32:10.675Z,2.30
2018-10-07T10:37:04.989Z,2.10
2018-10-07T10:39:43.272Z,2.42
2018-10-07T10:42:19.996Z,2.40
2018-10-07T10:44:50.216Z,2.00
2018-10-07T10:47:25.124Z,2.72
2018-10-07T10:51:04.028Z,3.50
2018-10-07T10:53:42.524Z,1.40
2018-10-07T10:56:19.864Z,1.85
2018-10-07T10:58:54.149Z,2.25
2018-10-07T11:01:27.797Z,1.90
2018-10-07T11:04:03.981Z,3.40
2018-10-07T11:06:40.689Z,1.90
2018-10-07T11:09:15.602Z,1.70
2018-10-07T11:11:54.254Z,2.90
2018-10-07T11:15:31.756Z,3.20
2018-10-07T11:18:10.036Z,1.55
2018-10-07T11:23:57.133Z,2.90
2018-10-07T11:27:00.808Z,3.27
2018-10-07T11:29:43.972Z,2.02
2018-10-07T11:32:22.377Z,2.85
2018-10-07T11:37:05.045Z,2.00
2018-10-07T11:41:45.520Z,1.87
2018-10-07T11:45:20.679Z,2.02
2018-10-07T11:47:58.907Z,2.00
2018-10-07T11:50:34.982Z,2.47
2018-10-07T11:53:40.545Z,2.15
2018-10-07T11:56:08.869Z,2.30
2018-10-07T11:58:37.215Z,1.65
2018-10-07T12:01:05.625Z,2.33
2018-10-07T12:03:33.976Z,2.42
2018-10-07T12:06:02.288Z,2.00
2018-10-07T12:08:30.665Z,3.35
2018-10-07T12:10:59.032Z,2.67
2018-10-07T12:13:27.377Z,2.80
2018-10-07T12:15:55.712Z,1.98
2018-10-07T12:18:24.052Z,2.47
2018-10-07T12:20:52.369Z,1.70
2018-10-07T12:23:20.704Z,2.10
2018-10-07T12:25:49.060Z,2.00
2018-10-07T12:28:17.369Z,3.60
2018-10-07T12:30:45.713Z,1.95
2018-10-07T12:33:14.034Z,2.00
2018-10-07T12:35:42.368Z,1.80
2018-10-07T12:38:10.692Z,1.70
2018-10-07T12:40:39.074Z,1.95
2018-10-07T12:43:07.401Z,2.83
2018-10-07T12:45:35.754Z,2.70
2018-10-07T12:48:04.065Z,2.65
2018-10-07T12:50:32.412Z,1.80
2018-10-07T12:53:01.964Z,2.02
2018-10-07T12:55:30.308Z,1.50
2018-10-07T12:57:58.612Z,1.55
2018-10-07T13:00:26.997Z,1.50
2018-10-07T13:02:55.388Z,2.52
2018-10-07T13:05:24.093Z,2.80
2018-10-07T13:07:52.500Z,2.27
2018-10-07T13:10:20.860Z,1.57
2018-10-07T13:12:49.160Z,1.90
2018-10-07T13:15:17.541Z,1.50
2018-10-07T13:17:45.896Z,2.85
2018-10-07T13:20:14.244Z,2.00
2018-10-07T13:22:42.550Z,2.65
2018-10-07T13:25:10.896Z,2.27
2018-10-07T13:27:39.220Z,1.85
2018-10-07T13:30:07.656Z,1.40
2018-10-07T13:32:35.971Z,4.10
2018-10-07T13:35:04.452Z,2.08
2018-10-07T13:37:32.764Z,2.27
2018-10-07T13:40:01.176Z,2.60
2018-10-07T13:42:29.455Z,1.57
2018-10-07T13:44:57.792Z,1.98
2018-10-07T13:47:26.108Z,2.30
2018-10-07T13:49:54.452Z,1.80
2018-10-07T13:52:22.793Z,2.87
2018-10-07T13:54:51.172Z,1.30
2018-10-07T13:57:19.496Z,2.15
2018-10-07T13:59:47.832Z,1.90
2018-10-07T14:02:16.148Z,2.20
2018-10-07T14:04:44.452Z,2.08
2018-10-07T14:07:12.808Z,1.50
2018-10-07T14:09:41.116Z,2.62
2018-10-07T14:12:09.468Z,1.50
2018-10-07T14:14:37.776Z,1.75
2018-10-07T14:17:06.141Z,2.17
2018-10-07T14:19:34.460Z,1.75
2018-10-07T14:22:02.816Z,2.00
2018-10-07T14:24:31.132Z,2.75
2018-10-07T14:26:59.474Z,2.12
2018-10-07T14:29:27.788Z,2.17
2018-10-07T14:31:56.124Z,1.75
2018-10-07T14:34:24.436Z,2.27
2018-10-07T14:36:52.785Z,1.62
2018-10-07T14:39:21.159Z,2.30
2018-10-07T14:41:49.489Z,1.85
2018-10-07T14:44:17.801Z,1.92
2018-10-07T14:46:46.163Z,2.77
2018-10-07T14:49:14.541Z,1.55
2018-10-07T14:51:42.848Z,2.00
2018-10-07T14:54:11.177Z,2.50
2018-10-07T14:56:39.559Z,2.58
2018-10-07T14:59:07.873Z,2.30
2018-10-07T15:01:36.216Z,2.83
2018-10-07T15:04:04.524Z,2.50
2018-10-07T15:06:32.879Z,3.85
2018-10-07T15:09:01.205Z,2.15
2018-10-07T15:11:29.567Z,3.10
2018-10-07T15:13:57.867Z,1.82
2018-10-07T15:16:26.215Z,2.35
2018-10-07T15:18:54.532Z,2.55
2018-10-07T15:21:22.867Z,2.87
2018-10-07T15:23:51.243Z,1.95
2018-10-07T15:26:19.564Z,3.20
2018-10-07T15:28:47.896Z,2.37
2018-10-07T15:31:16.257Z,3.25
2018-10-07T15:33:44.568Z,2.42
2018-10-07T15:36:13.049Z,2.30
2018-10-07T15:38:41.530Z,1.75
2018-10-07T15:41:09.868Z,3.20
2018-10-07T15:43:38.633Z,1.90
2018-10-07T15:46:07.340Z,2.90
2018-10-07T15:48:35.661Z,2.52
2018-10-07T15:51:04.015Z,2.58
2018-10-07T15:53:32.353Z,2.08
2018-10-07T15:56:00.762Z,2.17
2018-10-07T15:58:29.109Z,2.58
2018-10-07T16:00:57.600Z,2.62
2018-10-07T16:03:26.220Z,1.80
2018-10-07T16:05:54.537Z,2.33
2018-10-07T16:08:22.888Z,2.70
2018-10-07T16:10:51.200Z,2.75
2018-10-07T16:13:19.540Z,3.05
2018-10-07T16:15:47.939Z,2.65
2018-10-07T16:18:16.297Z,2.90
2018-10-07T16:20:44.612Z,2.87
2018-10-07T16:23:12.983Z,2.90
2018-10-07T16:25:41.309Z,3.42
2018-10-07T16:28:09.649Z,2.87
2018-10-07T16:30:37.961Z,3.17
2018-10-07T16:33:06.385Z,2.98
2018-10-07T16:35:34.707Z,3.05
2018-10-07T16:38:03.082Z,2.87
2018-10-07T16:40:31.404Z,4.15
2018-10-07T16:42:59.767Z,4.30
2018-10-07T16:45:28.092Z,5.75
2018-10-07T16:47:56.456Z,2.55
2018-10-07T16:50:24.776Z,3.80
2018-10-07T16:52:53.137Z,4.22
2018-10-07T16:55:21.460Z,3.08
2018-10-07T16:57:49.860Z,3.80
2018-10-07T17:00:18.185Z,3.12
2018-10-07T17:02:46.561Z,3.98
2018-10-07T17:05:14.905Z,2.50
2018-10-07T17:07:43.284Z,3.33
2018-10-07T17:10:11.597Z,3.12
2018-10-07T17:12:39.945Z,4.80
2018-10-07T17:15:08.276Z,3.75
2018-10-07T17:17:36.632Z,3.75
2018-10-07T17:20:04.964Z,3.55
2018-10-07T17:22:33.319Z,3.50
2018-10-07T17:25:01.638Z,4.60
2018-10-07T17:27:29.945Z,3.50
2018-10-07T17:29:58.300Z,4.15
2018-10-07T17:32:26.615Z,3.90
2018-10-07T17:34:54.970Z,3.85
2018-10-07T17:37:23.566Z,4.62
2018-10-07T17:39:52.028Z,3.80
2018-10-07T17:42:20.338Z,4.08
2018-10-07T17:44:48.682Z,5.17
2018-10-07T17:47:17.005Z,3.52
2018-10-07T17:49:45.376Z,3.62
2018-10-07T17:52:13.716Z,3.75
2018-10-07T17:54:42.138Z,4.20
2018-10-07T17:57:10.441Z,4.22
2018-10-07T17:59:38.796Z,3.80
2018-10-07T18:02:07.257Z,5.35
2018-10-07T18:04:36.256Z,4.00
2018-10-07T18:07:04.581Z,4.75
2018-10-07T18:09:32.948Z,6.03
2018-10-07T18:12:01.279Z,5.58
2018-10-07T18:14:29.646Z,4.62
2018-10-07T18:16:57.965Z,6.70
2018-10-07T18:19:26.317Z,5.22
2018-10-07T18:21:54.673Z,5.58
2018-10-07T18:24:22.988Z,6.00
2018-10-07T18:26:51.312Z,6.80
2018-10-07T18:29:19.662Z,6.67
2018-10-07T18:32:07.914Z,6.65
2018-10-07T18:35:10.227Z,5.28
2018-10-07T18:38:26.032Z,7.15
2018-10-07T18:40:54.434Z,4.62
2018-10-07T18:43:22.803Z,5.25
2018-10-07T18:45:51.112Z,6.83
2018-10-07T18:48:19.573Z,5.30
2018-10-07T18:50:47.902Z,7.10
2018-10-07T18:53:16.232Z,6.42
2018-10-07T18:55:44.596Z,6.65
2018-10-07T18:58:12.929Z,5.62
2018-10-07T19:00:41.356Z,6.83
2018-10-07T19:03:09.705Z,6.70
2018-10-07T19:05:38.234Z,4.37
2018-10-07T19:08:06.724Z,7.22
2018-10-07T19:10:35.121Z,5.35
2018-10-07T19:13:03.435Z,5.90
2018-10-07T19:15:32.435Z,7.65
2018-10-07T19:18:00.812Z,5.80
2018-10-07T19:20:29.176Z,6.10
2018-10-07T19:22:57.529Z,5.85
2018-10-07T19:25:25.886Z,5.17
2018-10-07T19:27:54.199Z,5.47
2018-10-07T19:30:22.551Z,5.62
2018-10-07T19:32:50.877Z,6.17
2018-10-07T19:35:19.260Z,5.65
2018-10-07T19:37:47.569Z,6.47
2018-10-07T19:40:15.937Z,5.10
2018-10-07T19:42:44.746Z,7.17
2018-10-07T19:45:13.446Z,5.87
2018-10-07T19:47:43.068Z,7.08
2018-10-07T19:50:11.448Z,4.55
2018-10-07T19:52:39.843Z,6.40
2018-10-07T19:55:08.173Z,6.20
2018-10-07T19:57:36.522Z,6.85
2018-10-07T20:00:05.028Z,6.90
2018-10-07T20:02:33.341Z,5.62
2018-10-07T20:05:01.764Z,7.15
2018-10-07T20:07:32.180Z,5.50
2018-10-07T20:10:00.536Z,5.08
2018-10-07T20:12:28.868Z,5.83
2018-10-07T20:14:57.250Z,5.22
2018-10-07T20:17:25.592Z,4.80
2018-10-07T20:19:53.952Z,5.55
2018-10-07T20:22:22.273Z,7.12
2018-10-07T20:24:50.625Z,4.22
2018-10-07T20:27:18.964Z,4.35
2018-10-07T20:29:47.320Z,5.83
2018-10-07T20:32:15.717Z,7.28
2018-10-07T20:34:44.028Z,4.35
2018-10-07T20:37:12.424Z,5.80
2018-10-07T20:39:40.808Z,5.72
2018-10-07T20:42:09.184Z,4.72
2018-10-07T20:44:37.512Z,7.45
2018-10-07T20:47:05.892Z,5.03
2018-10-07T20:49:34.203Z,4.80
2018-10-07T20:52:02.575Z,7.00
2018-10-07T20:54:30.891Z,5.97
2018-10-07T20:56:59.280Z,5.20
2018-10-07T20:59:27.598Z,6.60
2018-10-07T21:01:55.952Z,5.87
2018-10-07T21:04:27.778Z,5.05
2018-10-07T21:06:56.140Z,5.28
2018-10-07T21:09:24.447Z,4.42
2018-10-07T21:11:52.801Z,6.83
2018-10-07T21:14:21.114Z,4.72
2018-10-07T21:16:49.453Z,5.65
2018-10-07T21:19:17.760Z,5.17
2018-10-07T21:21:46.156Z,6.15
2018-10-07T21:24:14.504Z,5.15
2018-10-07T21:26:42.873Z,5.70
2018-10-07T21:29:11.205Z,5.90
2018-10-07T21:31:39.560Z,6.17
2018-10-07T21:34:07.905Z,7.10
2018-10-07T21:36:36.240Z,4.65
2018-10-07T21:39:06.644Z,6.40
2018-10-07T21:41:35.158Z,6.40
2018-10-07T21:44:03.408Z,7.40
2018-10-07T21:46:31.808Z,5.55
2018-10-07T21:49:00.085Z,6.17
2018-10-07T21:51:28.431Z,7.85
2018-10-07T21:53:56.790Z,6.87
2018-10-07T21:56:25.139Z,6.92
2018-10-07T21:58:53.463Z,6.95
2018-10-07T22:01:28.860Z,8.10
2018-10-07T22:03:57.165Z,6.17
2018-10-07T22:06:25.572Z,7.58
2018-10-07T22:08:53.936Z,6.60
2018-10-07T22:11:22.248Z,6.28
2018-10-07T22:13:50.619Z,7.08
2018-10-07T22:16:18.936Z,5.80
2018-10-07T22:18:47.284Z,5.60
2018-10-07T22:21:15.598Z,6.92
2018-10-07T22:23:43.963Z,7.58
2018-10-07T22:26:12.317Z,5.08
2018-10-07T22:28:41.033Z,6.15
2018-10-07T22:31:09.356Z,7.17
2018-10-07T22:33:37.701Z,6.10
2018-10-07T22:36:06.044Z,5.90
2018-10-07T22:38:34.392Z,4.30
2018-10-07T22:41:02.711Z,6.40
2018-10-07T22:43:31.060Z,7.90
2018-10-07T22:45:59.365Z,5.65
2018-10-07T22:48:27.708Z,5.97
2018-10-07T22:50:56.029Z,5.70
2018-10-07T22:53:24.381Z,5.15
2018-10-07T22:55:52.700Z,6.55
2018-10-07T22:58:21.053Z,5.70
2018-10-07T23:00:49.363Z,7.95
2018-10-07T23:03:17.703Z,6.58
2018-10-07T23:05:46.028Z,6.17
2018-10-07T23:08:14.372Z,5.58
2018-10-07T23:10:42.732Z,6.75
2018-10-07T23:13:11.098Z,7.10
2018-10-07T23:15:39.408Z,7.72
2018-10-07T23:18:07.764Z,6.67
2018-10-07T23:20:36.073Z,6.33
2018-10-07T23:23:04.420Z,6.17
2018-10-07T23:25:32.772Z,5.00
2018-10-07T23:28:01.123Z,5.50
2018-10-07T23:30:29.435Z,6.92
2018-10-07T23:32:57.788Z,7.87
2018-10-07T23:35:26.100Z,6.53
2018-10-07T23:37:54.544Z,5.92
2018-10-07T23:40:22.876Z,7.03
2018-10-07T23:42:51.216Z,6.70
2018-10-07T23:45:19.517Z,8.90
2018-10-07T23:47:47.880Z,4.92
2018-10-07T23:50:16.197Z,6.22
2018-10-07T23:52:44.524Z,7.45
2018-10-07T23:55:12.860Z,7.70
2018-10-07T23:57:41.177Z,6.72
